Hornblower Hybrid — WDF9693 — position and weather

sailwx.info

Track history (hours):
 
Tides and Currents Weather Stations Pressure Air Temp Water Temp Dewpoint Dewpoint Depression Visibility Wind Speed Wind Dir Waves Ship Positions

Hornblower Hybrid

Owner: Statue Cruises, LLC, JERSEY CITY, NJ. More information available from US FCC via Universal Licensing System and Coast Guard Vessel Documentation Center.

Last reported at 2018-May-20 18:36 UTC. Time now 2018-May-21 01:08 UTC.
Position N 40°44' W 074°01'.

Length 47 m; draft 3.1 m.

Type: Passenger vessel. MMSI: 367507840.

Date/timePositionNaut miles runAvg speedWind from/ knotsBaromVisibWave heightAir tempDewpointWater temp
2018-May-20 18:36N 40°44' W 074°01'0 0.1
2018-May-20 18:31N 40°44' W 074°01'2 4.7
2018-May-20 18:01N 40°42' W 074°02'2 3.4
2018-May-20 17:30N 40°42' W 073°60'1 2.2
2018-May-20 17:01N 40°42' W 074°01'1 2.8
2018-May-20 16:31N 40°44' W 074°01'0 0.0
2018-May-20 16:00N 40°44' W 074°01'0 0.0
2018-May-20 15:30N 40°44' W 074°01'0 0.0
2018-May-20 15:01N 40°44' W 074°01'0 0.0
2018-May-20 04:56N 40°44' W 074°01'0 0.5
2018-May-20 04:30N 40°44' W 074°01'2 2.4
2018-May-20 03:44N 40°42' W 074°00'0 0.0
2018-May-20 03:30N 40°42' W 074°00'0 0.0
2018-May-20 03:01N 40°42' W 074°00'0 0.8
2018-May-20 02:31N 40°42' W 074°00'1 2.3
2018-May-20 02:00N 40°42' W 074°02'0 0.9
2018-May-20 01:31N 40°42' W 074°01'1 1.6
2018-May-20 01:00N 40°42' W 074°00'0 0.0
2018-May-20 00:30N 40°42' W 074°00'0 0.0
2018-May-20 00:00N 40°42' W 074°00'1 1.4
2018-May-19 23:31N 40°42' W 074°01'1 1.7
2018-May-19 23:01N 40°42' W 074°02'1 1.5
2018-May-19 22:30N 40°43' W 074°01'1 0.8
2018-May-19 21:27N 40°42' W 074°00'0 0.0
2018-May-19 21:00N 40°42' W 074°00'1 2.9
2018-May-19 20:31N 40°44' W 074°01'0 0.7
2018-May-19 20:00N 40°44' W 074°01'0 0.0
2018-May-19 19:29N 40°44' W 074°01'0 0.0
2018-May-19 19:01N 40°44' W 074°01'0 0.0
2018-May-19 18:31N 40°44' W 074°01'1 2.5
2018-May-19 18:00N 40°43' W 074°01'1 1.9
2018-May-19 17:31N 40°42' W 074°01'1 2.4
2018-May-19 17:00N 40°43' W 074°01'1 1.7
2018-May-19 16:28N 40°44' W 074°01'0 0.0
2018-May-19 16:00N 40°44' W 074°01'0 0.0
2018-May-19 15:23N 40°44' W 074°01'0 0.0
2018-May-19 15:00N 40°44' W 074°01'0 0.0
2018-May-19 02:19N 40°44' W 074°01'0 0.0
2018-May-19 02:00N 40°44' W 074°01'2 3.3
2018-May-19 01:30N 40°42' W 074°02'0 1.0
2018-May-19 01:00N 40°42' W 074°01'1 1.4
2018-May-19 00:30N 40°42' W 074°00'2 4.6
2018-May-19 00:00N 40°44' W 074°01'1 1.8
2018-May-18 23:30N 40°45' W 074°01'1 2.5
2018-May-18 23:00N 40°44' W 074°01'0 0.0
2018-May-18 22:30N 40°44' W 074°01'0 0.0
2018-May-18 22:00N 40°44' W 074°01'0 0.0
2018-May-18 01:47N 40°44' W 074°01'1 3.5
2018-May-18 01:31N 40°43' W 074°01'2 3.1
2018-May-18 01:01N 40°42' W 074°02'3 5.3
2018-May-18 00:30N 40°43' W 073°59'2 3.6
2018-May-18 00:01N 40°42' W 074°01'4 7.8
2018-May-17 23:30N 40°46' W 074°00'2 4.2
2018-May-17 23:00N 40°44' W 074°01'0 0.0
2018-May-17 22:31N 40°44' W 074°01'0 0.0
2018-May-17 22:01N 40°44' W 074°01'0 0.0
2018-May-17 21:31N 40°44' W 074°01'0 0.0
2018-May-17 21:00N 40°44' W 074°01'0 0.0
2018-May-17 20:31N 40°44' W 074°01'0 0.0
2018-May-17 20:01N 40°44' W 074°01'0 0.0
2018-May-17 19:30N 40°44' W 074°01'0 0.0
2018-May-17 19:00N 40°44' W 074°01'0 0.0
2018-May-17 18:23N 40°44' W 074°01'0 0.0
2018-May-17 17:52N 40°44' W 074°01'0 0.0
2018-May-17 17:17N 40°44' W 074°01'0 0.0
2018-May-17 17:00N 40°44' W 074°01'2 3.1
2018-May-17 16:31N 40°42' W 074°01'1 1.7
2018-May-17 16:01N 40°42' W 074°00'2 3.7
2018-May-17 15:29N 40°44' W 074°01'0 0.0
2018-May-17 14:57N 40°44' W 074°01'0 0.0
2018-May-17 14:17N 40°44' W 074°01'0 0.0
2018-May-17 13:58N 40°44' W 074°01'0 0.0
2018-May-16 02:28N 40°44' W 074°01'4 9.6
2018-May-16 02:00N 40°40' W 074°02'1 0.8
2018-May-16 01:05N 40°39' W 074°02'0 0.0
2018-May-16 00:54N 40°39' W 074°02'1 3.1
2018-May-16 00:30N 40°40' W 074°02'0 0.2
2018-May-16 00:00N 40°40' W 074°02'1 2.0
2018-May-15 23:27N 40°39' W 074°02'0 0.0
2018-May-15 22:59N 40°39' W 074°02'0 0.0
2018-May-15 22:29N 40°39' W 074°02'0 0.0
2018-May-15 21:58N 40°39' W 074°02'0 0.0
2018-May-15 21:27N 40°39' W 074°02'0 0.0
2018-May-15 21:00N 40°39' W 074°02'0 0.0
2018-May-15 20:30N 40°39' W 074°02'0 0.0
2018-May-15 20:00N 40°39' W 074°02'2 3.8
2018-May-15 19:30N 40°41' W 074°02'3 6.5
2018-May-15 19:00N 40°44' W 074°01'0 0.0
2018-May-15 18:30N 40°44' W 074°01'0 0.0
2018-May-15 02:32N 40°44' W 074°01'0 4.3
2018-May-15 02:30N 40°44' W 074°01'2 3.1
2018-May-15 02:00N 40°42' W 074°00'1 1.1
2018-May-15 01:30N 40°42' W 073°60'0 0.7
2018-May-15 01:00N 40°42' W 073°60'2 4.3
2018-May-15 00:30N 40°41' W 074°03'3 5.0
2018-May-15 00:00N 40°44' W 074°01'3 5.1
2018-May-14 23:30N 40°41' W 074°01'1 2.5
2018-May-14 23:00N 40°42' W 074°00'0 0.0
2018-May-14 22:30N 40°42' W 074°00'0 0.0
2018-May-14 22:00N 40°42' W 074°00'2 3.4
2018-May-14 21:30N 40°44' W 074°01'0 0.0
2018-May-13 19:01N 40°44' W 074°01'0 0.0
2018-May-13 18:59N 40°44' W 074°01'2 3.4
2018-May-13 18:30N 40°42' W 074°02'1 1.4
2018-May-13 18:00N 40°42' W 074°01'0 0.9
2018-May-13 17:30N 40°42' W 074°01'2 3.4
2018-May-13 17:00N 40°44' W 074°01'0 0.0
2018-May-13 16:30N 40°44' W 074°01'0 0.0
2018-May-12 17:43N 40°44' W 074°01'0 0.1
2018-May-12 17:30N 40°44' W 074°01'2 4.1
2018-May-12 17:01N 40°42' W 074°02'0 0.8
2018-May-12 16:31N 40°42' W 074°02'1 2.8
2018-May-12 16:01N 40°42' W 074°00'2 3.5
2018-May-12 15:29N 40°44' W 074°01'0 0.0
2018-May-12 15:00N 40°44' W 074°01'0 0.0
2018-May-12 14:30N 40°44' W 074°01'0 0.0
2018-May-12 14:00N 40°44' W 074°01'0 0.0
2018-May-12 13:30N 40°44' W 074°01'0 0.0
2018-May-11 20:44N 40°44' W 074°01'0 0.0
2018-May-11 20:24N 40°44' W 074°01'0 0.0
2018-May-11 20:00N 40°44' W 074°01'0 0.0
2018-May-11 19:30N 40°44' W 074°01'2 4.4
2018-May-11 19:00N 40°42' W 074°02'2 1.4
2018-May-11 17:56N 40°42' W 073°60'2 3.0
2018-May-11 17:26N 40°43' W 074°01'3 6.5
2018-May-11 17:00N 40°46' W 074°00'1 2.6
2018-May-11 16:30N 40°45' W 074°01'1 1.5
2018-May-11 15:59N 40°44' W 074°01'0 0.0
2018-May-11 15:30N 40°44' W 074°01'0 0.0
2018-May-11 14:58N 40°44' W 074°01'0 0.0
2018-May-11 14:28N 40°44' W 074°01'0 0.0
2018-May-11 14:00N 40°44' W 074°01'  
Track history (hours):
 
Tides and Currents Weather Stations Pressure Air Temp Water Temp Dewpoint Dewpoint Depression Visibility Wind Speed Wind Dir Waves Ship Positions

Hornblower Hybrid

Owner: Statue Cruises, LLC, JERSEY CITY, NJ. More information available from US FCC via Universal Licensing System and Coast Guard Vessel Documentation Center.

Last reported at 2018-May-20 18:36 UTC. Time now 2018-May-21 01:08 UTC.
Position N 40°44' W 074°01'.

Length 47 m; draft 3.1 m.

Type: Passenger vessel. MMSI: 367507840.

Date/timePositionNaut miles runAvg speedWind from/ knotsBaromVisibWave heightAir tempDewpointWater temp
2018-May-20 18:36N 40°44' W 074°01'0 0.1
2018-May-20 18:31N 40°44' W 074°01'2 4.7
2018-May-20 18:01N 40°42' W 074°02'2 3.4
2018-May-20 17:30N 40°42' W 073°60'1 2.2
2018-May-20 17:01N 40°42' W 074°01'1 2.8
2018-May-20 16:31N 40°44' W 074°01'0 0.0
2018-May-20 16:00N 40°44' W 074°01'0 0.0
2018-May-20 15:30N 40°44' W 074°01'0 0.0
2018-May-20 15:01N 40°44' W 074°01'0 0.0
2018-May-20 04:56N 40°44' W 074°01'0 0.5
2018-May-20 04:30N 40°44' W 074°01'2 2.4
2018-May-20 03:44N 40°42' W 074°00'0 0.0
2018-May-20 03:30N 40°42' W 074°00'0 0.0
2018-May-20 03:01N 40°42' W 074°00'0 0.8
2018-May-20 02:31N 40°42' W 074°00'1 2.3
2018-May-20 02:00N 40°42' W 074°02'0 0.9
2018-May-20 01:31N 40°42' W 074°01'1 1.6
2018-May-20 01:00N 40°42' W 074°00'0 0.0
2018-May-20 00:30N 40°42' W 074°00'0 0.0
2018-May-20 00:00N 40°42' W 074°00'1 1.4
2018-May-19 23:31N 40°42' W 074°01'1 1.7
2018-May-19 23:01N 40°42' W 074°02'1 1.5
2018-May-19 22:30N 40°43' W 074°01'1 0.8
2018-May-19 21:27N 40°42' W 074°00'0 0.0
2018-May-19 21:00N 40°42' W 074°00'1 2.9
2018-May-19 20:31N 40°44' W 074°01'0 0.7
2018-May-19 20:00N 40°44' W 074°01'0 0.0
2018-May-19 19:29N 40°44' W 074°01'0 0.0
2018-May-19 19:01N 40°44' W 074°01'0 0.0
2018-May-19 18:31N 40°44' W 074°01'1 2.5
2018-May-19 18:00N 40°43' W 074°01'1 1.9
2018-May-19 17:31N 40°42' W 074°01'1 2.4
2018-May-19 17:00N 40°43' W 074°01'1 1.7
2018-May-19 16:28N 40°44' W 074°01'0 0.0
2018-May-19 16:00N 40°44' W 074°01'0 0.0
2018-May-19 15:23N 40°44' W 074°01'0 0.0
2018-May-19 15:00N 40°44' W 074°01'0 0.0
2018-May-19 02:19N 40°44' W 074°01'0 0.0
2018-May-19 02:00N 40°44' W 074°01'2 3.3
2018-May-19 01:30N 40°42' W 074°02'0 1.0
2018-May-19 01:00N 40°42' W 074°01'1 1.4
2018-May-19 00:30N 40°42' W 074°00'2 4.6
2018-May-19 00:00N 40°44' W 074°01'1 1.8
2018-May-18 23:30N 40°45' W 074°01'1 2.5
2018-May-18 23:00N 40°44' W 074°01'0 0.0
2018-May-18 22:30N 40°44' W 074°01'0 0.0
2018-May-18 22:00N 40°44' W 074°01'0 0.0
2018-May-18 01:47N 40°44' W 074°01'1 3.5
2018-May-18 01:31N 40°43' W 074°01'2 3.1
2018-May-18 01:01N 40°42' W 074°02'3 5.3
2018-May-18 00:30N 40°43' W 073°59'2 3.6
2018-May-18 00:01N 40°42' W 074°01'4 7.8
2018-May-17 23:30N 40°46' W 074°00'2 4.2
2018-May-17 23:00N 40°44' W 074°01'0 0.0
2018-May-17 22:31N 40°44' W 074°01'0 0.0
2018-May-17 22:01N 40°44' W 074°01'0 0.0
2018-May-17 21:31N 40°44' W 074°01'0 0.0
2018-May-17 21:00N 40°44' W 074°01'0 0.0
2018-May-17 20:31N 40°44' W 074°01'0 0.0
2018-May-17 20:01N 40°44' W 074°01'0 0.0
2018-May-17 19:30N 40°44' W 074°01'0 0.0
2018-May-17 19:00N 40°44' W 074°01'0 0.0
2018-May-17 18:23N 40°44' W 074°01'0 0.0
2018-May-17 17:52N 40°44' W 074°01'0 0.0
2018-May-17 17:17N 40°44' W 074°01'0 0.0
2018-May-17 17:00N 40°44' W 074°01'2 3.1
2018-May-17 16:31N 40°42' W 074°01'1 1.7
2018-May-17 16:01N 40°42' W 074°00'2 3.7
2018-May-17 15:29N 40°44' W 074°01'0 0.0
2018-May-17 14:57N 40°44' W 074°01'0 0.0
2018-May-17 14:17N 40°44' W 074°01'0 0.0
2018-May-17 13:58N 40°44' W 074°01'0 0.0
2018-May-16 02:28N 40°44' W 074°01'4 9.6
2018-May-16 02:00N 40°40' W 074°02'1 0.8
2018-May-16 01:05N 40°39' W 074°02'0 0.0
2018-May-16 00:54N 40°39' W 074°02'1 3.1
2018-May-16 00:30N 40°40' W 074°02'0 0.2
2018-May-16 00:00N 40°40' W 074°02'1 2.0
2018-May-15 23:27N 40°39' W 074°02'0 0.0
2018-May-15 22:59N 40°39' W 074°02'0 0.0
2018-May-15 22:29N 40°39' W 074°02'0 0.0
2018-May-15 21:58N 40°39' W 074°02'0 0.0
2018-May-15 21:27N 40°39' W 074°02'0 0.0
2018-May-15 21:00N 40°39' W 074°02'0 0.0
2018-May-15 20:30N 40°39' W 074°02'0 0.0
2018-May-15 20:00N 40°39' W 074°02'2 3.8
2018-May-15 19:30N 40°41' W 074°02'3 6.5
2018-May-15 19:00N 40°44' W 074°01'0 0.0
2018-May-15 18:30N 40°44' W 074°01'0 0.0
2018-May-15 02:32N 40°44' W 074°01'0 4.3
2018-May-15 02:30N 40°44' W 074°01'2 3.1
2018-May-15 02:00N 40°42' W 074°00'1 1.1
2018-May-15 01:30N 40°42' W 073°60'0 0.7
2018-May-15 01:00N 40°42' W 073°60'2 4.3
2018-May-15 00:30N 40°41' W 074°03'3 5.0
2018-May-15 00:00N 40°44' W 074°01'3 5.1
2018-May-14 23:30N 40°41' W 074°01'1 2.5
2018-May-14 23:00N 40°42' W 074°00'0 0.0
2018-May-14 22:30N 40°42' W 074°00'0 0.0
2018-May-14 22:00N 40°42' W 074°00'2 3.4
2018-May-14 21:30N 40°44' W 074°01'0 0.0
2018-May-13 19:01N 40°44' W 074°01'0 0.0
2018-May-13 18:59N 40°44' W 074°01'2 3.4
2018-May-13 18:30N 40°42' W 074°02'1 1.4
2018-May-13 18:00N 40°42' W 074°01'0 0.9
2018-May-13 17:30N 40°42' W 074°01'2 3.4
2018-May-13 17:00N 40°44' W 074°01'0 0.0
2018-May-13 16:30N 40°44' W 074°01'0 0.0
2018-May-12 17:43N 40°44' W 074°01'0 0.1
2018-May-12 17:30N 40°44' W 074°01'2 4.1
2018-May-12 17:01N 40°42' W 074°02'0 0.8
2018-May-12 16:31N 40°42' W 074°02'1 2.8
2018-May-12 16:01N 40°42' W 074°00'2 3.5
2018-May-12 15:29N 40°44' W 074°01'0 0.0
2018-May-12 15:00N 40°44' W 074°01'0 0.0
2018-May-12 14:30N 40°44' W 074°01'0 0.0
2018-May-12 14:00N 40°44' W 074°01'0 0.0
2018-May-12 13:30N 40°44' W 074°01'0 0.0
2018-May-11 20:44N 40°44' W 074°01'0 0.0
2018-May-11 20:24N 40°44' W 074°01'0 0.0
2018-May-11 20:00N 40°44' W 074°01'0 0.0
2018-May-11 19:30N 40°44' W 074°01'2 4.4
2018-May-11 19:00N 40°42' W 074°02'2 1.4
2018-May-11 17:56N 40°42' W 073°60'2 3.0
2018-May-11 17:26N 40°43' W 074°01'3 6.5
2018-May-11 17:00N 40°46' W 074°00'1 2.6
2018-May-11 16:30N 40°45' W 074°01'1 1.5
2018-May-11 15:59N 40°44' W 074°01'0 0.0
2018-May-11 15:30N 40°44' W 074°01'0 0.0
2018-May-11 14:58N 40°44' W 074°01'0 0.0
2018-May-11 14:28N 40°44' W 074°01'0 0.0
2018-May-11 14:00N 40°44' W 074°01'  

Dump ship's entire track history